sensor_id;sensor_type;location;lat;lon;timestamp;temperature;humidity
9542;DHT22;4809;48.224;8.572;2023-04-15T00:02:18;3.40;99.90
9542;DHT22;4809;48.224;8.572;2023-04-15T00:04:47;3.30;99.90
9542;DHT22;4809;48.224;8.572;2023-04-15T00:07:13;3.30;99.90
9542;DHT22;4809;48.224;8.572;2023-04-15T00:09:41;3.30;99.90
9542;DHT22;4809;48.224;8.572;2023-04-15T00:12:07;3.20;99.90
9542;DHT22;4809;48.224;8.572;2023-04-15T00:14:36;3.10;99.90
9542;DHT22;4809;48.224;8.572;2023-04-15T00:17:02;3.00;99.90
9542;DHT22;4809;48.224;8.572;2023-04-15T00:19:29;3.00;99.90
9542;DHT22;4809;48.224;8.572;2023-04-15T00:21:55;2.90;99.90
9542;DHT22;4809;48.224;8.572;2023-04-15T00:24:21;2.80;99.90
9542;DHT22;4809;48.224;8.572;2023-04-15T00:26:46;2.90;99.90
9542;DHT22;4809;48.224;8.572;2023-04-15T00:29:12;2.90;99.90
9542;DHT22;4809;48.224;8.572;2023-04-15T00:31:38;2.80;99.90
9542;DHT22;4809;48.224;8.572;2023-04-15T00:34:03;2.90;99.90
9542;DHT22;4809;48.224;8.572;2023-04-15T00:36:29;2.80;99.90
9542;DHT22;4809;48.224;8.572;2023-04-15T00:38:56;2.80;99.90
9542;DHT22;4809;48.224;8.572;2023-04-15T00:41:22;2.80;99.90
9542;DHT22;4809;48.224;8.572;2023-04-15T00:43:47;2.80;99.90
9542;DHT22;4809;48.224;8.572;2023-04-15T00:46:15;2.70;99.90
9542;DHT22;4809;48.224;8.572;2023-04-15T00:48:42;2.70;99.90
9542;DHT22;4809;48.224;8.572;2023-04-15T00:51:08;2.80;99.90
9542;DHT22;4809;48.224;8.572;2023-04-15T00:53:34;2.80;99.90
9542;DHT22;4809;48.224;8.572;2023-04-15T00:55:59;2.80;99.90
9542;DHT22;4809;48.224;8.572;2023-04-15T00:58:25;2.70;99.90
9542;DHT22;4809;48.224;8.572;2023-04-15T01:00:53;2.60;99.90
9542;DHT22;4809;48.224;8.572;2023-04-15T01:03:19;2.50;99.90
9542;DHT22;4809;48.224;8.572;2023-04-15T01:05:45;2.40;99.90
9542;DHT22;4809;48.224;8.572;2023-04-15T01:08:11;2.40;99.90
9542;DHT22;4809;48.224;8.572;2023-04-15T01:10:37;2.30;99.90
9542;DHT22;4809;48.224;8.572;2023-04-15T01:13:04;2.40;99.90
9542;DHT22;4809;48.224;8.572;2023-04-15T01:15:30;2.40;99.90
9542;DHT22;4809;48.224;8.572;2023-04-15T01:17:59;2.40;99.90
9542;DHT22;4809;48.224;8.572;2023-04-15T01:20:27;2.40;99.90
9542;DHT22;4809;48.224;8.572;2023-04-15T01:22:54;2.50;99.90
9542;DHT22;4809;48.224;8.572;2023-04-15T01:25:29;2.50;99.90
9542;DHT22;4809;48.224;8.572;2023-04-15T01:27:55;2.40;99.90
9542;DHT22;4809;48.224;8.572;2023-04-15T01:30:21;2.40;99.90
9542;DHT22;4809;48.224;8.572;2023-04-15T01:32:47;2.30;99.90
9542;DHT22;4809;48.224;8.572;2023-04-15T01:35:12;2.30;99.90
9542;DHT22;4809;48.224;8.572;2023-04-15T01:37:38;2.30;99.90
9542;DHT22;4809;48.224;8.572;2023-04-15T01:40:04;2.30;99.90
9542;DHT22;4809;48.224;8.572;2023-04-15T01:42:31;2.30;99.90
9542;DHT22;4809;48.224;8.572;2023-04-15T01:44:57;2.20;99.90
9542;DHT22;4809;48.224;8.572;2023-04-15T01:47:22;2.20;99.90
9542;DHT22;4809;48.224;8.572;2023-04-15T01:49:48;2.10;99.90
9542;DHT22;4809;48.224;8.572;2023-04-15T01:52:14;2.10;99.90
9542;DHT22;4809;48.224;8.572;2023-04-15T01:54:40;1.90;99.90
9542;DHT22;4809;48.224;8.572;2023-04-15T01:57:06;1.80;99.90
9542;DHT22;4809;48.224;8.572;2023-04-15T01:59:31;1.80;99.90
9542;DHT22;4809;48.224;8.572;2023-04-15T02:01:57;1.70;99.90
9542;DHT22;4809;48.224;8.572;2023-04-15T02:04:23;1.70;99.90
9542;DHT22;4809;48.224;8.572;2023-04-15T02:06:49;1.70;99.90
9542;DHT22;4809;48.224;8.572;2023-04-15T02:09:14;1.80;99.90
9542;DHT22;4809;48.224;8.572;2023-04-15T02:11:41;1.80;99.90
9542;DHT22;4809;48.224;8.572;2023-04-15T02:14:06;1.80;99.90
9542;DHT22;4809;48.224;8.572;2023-04-15T02:16:32;1.80;99.90
9542;DHT22;4809;48.224;8.572;2023-04-15T02:19:01;1.80;99.90
9542;DHT22;4809;48.224;8.572;2023-04-15T02:21:29;1.80;99.90
9542;DHT22;4809;48.224;8.572;2023-04-15T02:23:55;1.90;99.90
9542;DHT22;4809;48.224;8.572;2023-04-15T02:26:21;2.00;99.90
9542;DHT22;4809;48.224;8.572;2023-04-15T02:28:49;1.90;99.90
9542;DHT22;4809;48.224;8.572;2023-04-15T02:31:21;1.90;99.90
9542;DHT22;4809;48.224;8.572;2023-04-15T02:33:47;1.90;99.90
9542;DHT22;4809;48.224;8.572;2023-04-15T02:36:12;1.80;99.90
9542;DHT22;4809;48.224;8.572;2023-04-15T02:38:38;1.80;99.90
9542;DHT22;4809;48.224;8.572;2023-04-15T02:41:07;1.80;99.90
9542;DHT22;4809;48.224;8.572;2023-04-15T02:43:32;1.80;99.90
9542;DHT22;4809;48.224;8.572;2023-04-15T02:45:58;1.80;99.90
9542;DHT22;4809;48.224;8.572;2023-04-15T02:48:24;1.80;99.90
9542;DHT22;4809;48.224;8.572;2023-04-15T02:50:50;1.80;99.90
9542;DHT22;4809;48.224;8.572;2023-04-15T02:53:16;1.70;99.90
9542;DHT22;4809;48.224;8.572;2023-04-15T02:55:41;1.70;99.90
9542;DHT22;4809;48.224;8.572;2023-04-15T02:58:07;1.70;99.90
9542;DHT22;4809;48.224;8.572;2023-04-15T03:00:33;1.60;99.90
9542;DHT22;4809;48.224;8.572;2023-04-15T03:03:02;1.50;99.90
9542;DHT22;4809;48.224;8.572;2023-04-15T03:05:28;1.40;99.90
9542;DHT22;4809;48.224;8.572;2023-04-15T03:07:54;1.40;99.90
9542;DHT22;4809;48.224;8.572;2023-04-15T03:10:20;1.30;99.90
9542;DHT22;4809;48.224;8.572;2023-04-15T03:12:46;1.30;99.90
9542;DHT22;4809;48.224;8.572;2023-04-15T03:15:12;1.30;99.90
9542;DHT22;4809;48.224;8.572;2023-04-15T03:17:38;1.40;99.90
9542;DHT22;4809;48.224;8.572;2023-04-15T03:20:05;1.40;99.90
9542;DHT22;4809;48.224;8.572;2023-04-15T03:22:31;1.50;99.90
9542;DHT22;4809;48.224;8.572;2023-04-15T03:24:57;1.50;99.90
9542;DHT22;4809;48.224;8.572;2023-04-15T03:27:23;1.50;99.90
9542;DHT22;4809;48.224;8.572;2023-04-15T03:29:49;1.40;99.90
9542;DHT22;4809;48.224;8.572;2023-04-15T03:32:14;1.30;99.90
9542;DHT22;4809;48.224;8.572;2023-04-15T03:34:41;1.40;99.90
9542;DHT22;4809;48.224;8.572;2023-04-15T03:37:07;1.50;99.90
9542;DHT22;4809;48.224;8.572;2023-04-15T03:39:33;1.50;99.90
9542;DHT22;4809;48.224;8.572;2023-04-15T03:41:59;1.50;99.90
9542;DHT22;4809;48.224;8.572;2023-04-15T03:44:26;1.60;99.90
9542;DHT22;4809;48.224;8.572;2023-04-15T03:46:52;1.60;99.90
9542;DHT22;4809;48.224;8.572;2023-04-15T03:49:18;1.60;99.90
9542;DHT22;4809;48.224;8.572;2023-04-15T03:51:44;1.60;99.90
9542;DHT22;4809;48.224;8.572;2023-04-15T03:54:10;1.70;99.90
9542;DHT22;4809;48.224;8.572;2023-04-15T03:56:37;1.70;99.90
9542;DHT22;4809;48.224;8.572;2023-04-15T03:59:03;1.50;99.90
9542;DHT22;4809;48.224;8.572;2023-04-15T04:01:28;1.50;99.90
9542;DHT22;4809;48.224;8.572;2023-04-15T04:03:54;1.60;99.90
9542;DHT22;4809;48.224;8.572;2023-04-15T04:06:23;1.60;99.90
9542;DHT22;4809;48.224;8.572;2023-04-15T04:08:49;1.50;99.90
9542;DHT22;4809;48.224;8.572;2023-04-15T04:11:14;1.40;99.90
9542;DHT22;4809;48.224;8.572;2023-04-15T04:13:40;1.40;99.90
9542;DHT22;4809;48.224;8.572;2023-04-15T04:16:06;1.40;99.90
9542;DHT22;4809;48.224;8.572;2023-04-15T04:18:32;1.40;99.90
9542;DHT22;4809;48.224;8.572;2023-04-15T04:20:58;1.50;99.90
9542;DHT22;4809;48.224;8.572;2023-04-15T04:23:23;1.50;99.90
9542;DHT22;4809;48.224;8.572;2023-04-15T04:25:49;1.50;99.90
9542;DHT22;4809;48.224;8.572;2023-04-15T04:28:15;1.60;99.90
9542;DHT22;4809;48.224;8.572;2023-04-15T04:30:41;1.60;99.90
9542;DHT22;4809;48.224;8.572;2023-04-15T04:33:06;1.60;99.90
9542;DHT22;4809;48.224;8.572;2023-04-15T04:35:32;1.60;99.90
9542;DHT22;4809;48.224;8.572;2023-04-15T04:38:00;1.60;99.90
9542;DHT22;4809;48.224;8.572;2023-04-15T04:40:25;1.50;99.90
9542;DHT22;4809;48.224;8.572;2023-04-15T04:42:52;1.50;99.90
9542;DHT22;4809;48.224;8.572;2023-04-15T04:45:18;1.60;99.90
9542;DHT22;4809;48.224;8.572;2023-04-15T04:47:44;1.60;99.90
9542;DHT22;4809;48.224;8.572;2023-04-15T04:50:11;1.60;99.90
9542;DHT22;4809;48.224;8.572;2023-04-15T04:52:37;1.60;99.90
9542;DHT22;4809;48.224;8.572;2023-04-15T04:55:03;1.70;99.90
9542;DHT22;4809;48.224;8.572;2023-04-15T04:57:29;1.70;99.90
9542;DHT22;4809;48.224;8.572;2023-04-15T04:59:55;1.70;99.90
9542;DHT22;4809;48.224;8.572;2023-04-15T05:02:21;1.70;99.90
9542;DHT22;4809;48.224;8.572;2023-04-15T05:04:46;1.80;99.90
9542;DHT22;4809;48.224;8.572;2023-04-15T05:07:12;1.80;99.90
9542;DHT22;4809;48.224;8.572;2023-04-15T05:09:38;1.80;99.90
9542;DHT22;4809;48.224;8.572;2023-04-15T05:12:03;1.80;99.90
9542;DHT22;4809;48.224;8.572;2023-04-15T05:14:29;1.80;99.90
9542;DHT22;4809;48.224;8.572;2023-04-15T05:16:56;2.00;99.90
9542;DHT22;4809;48.224;8.572;2023-04-15T05:19:22;2.10;99.90
9542;DHT22;4809;48.224;8.572;2023-04-15T05:21:47;2.30;99.90
9542;DHT22;4809;48.224;8.572;2023-04-15T05:24:13;2.40;99.90
9542;DHT22;4809;48.224;8.572;2023-04-15T05:26:39;2.70;99.90
9542;DHT22;4809;48.224;8.572;2023-04-15T05:29:04;2.90;99.90
9542;DHT22;4809;48.224;8.572;2023-04-15T05:31:30;3.20;99.90
9542;DHT22;4809;48.224;8.572;2023-04-15T05:33:56;3.30;99.90
9542;DHT22;4809;48.224;8.572;2023-04-15T05:36:22;3.50;99.90
9542;DHT22;4809;48.224;8.572;2023-04-15T05:38:47;3.50;99.90
9542;DHT22;4809;48.224;8.572;2023-04-15T05:41:13;3.60;99.90
9542;DHT22;4809;48.224;8.572;2023-04-15T05:43:40;3.70;99.90
9542;DHT22;4809;48.224;8.572;2023-04-15T05:46:06;3.80;99.90
9542;DHT22;4809;48.224;8.572;2023-04-15T05:48:32;3.90;99.90
9542;DHT22;4809;48.224;8.572;2023-04-15T05:50:59;4.00;99.90
9542;DHT22;4809;48.224;8.572;2023-04-15T05:53:25;4.10;99.90
9542;DHT22;4809;48.224;8.572;2023-04-15T05:55:51;4.20;99.90
9542;DHT22;4809;48.224;8.572;2023-04-15T05:58:16;4.20;99.90
9542;DHT22;4809;48.224;8.572;2023-04-15T06:00:42;4.30;99.90
9542;DHT22;4809;48.224;8.572;2023-04-15T06:03:08;4.30;99.90
9542;DHT22;4809;48.224;8.572;2023-04-15T06:05:33;4.40;99.90
9542;DHT22;4809;48.224;8.572;2023-04-15T06:07:59;4.50;99.90
9542;DHT22;4809;48.224;8.572;2023-04-15T06:10:25;4.50;99.90
9542;DHT22;4809;48.224;8.572;2023-04-15T06:12:52;4.50;99.90
9542;DHT22;4809;48.224;8.572;2023-04-15T06:15:17;4.50;99.90
9542;DHT22;4809;48.224;8.572;2023-04-15T06:17:44;4.60;99.90
9542;DHT22;4809;48.224;8.572;2023-04-15T06:20:10;4.60;99.90
9542;DHT22;4809;48.224;8.572;2023-04-15T06:22:36;4.80;99.90
9542;DHT22;4809;48.224;8.572;2023-04-15T06:25:03;4.80;99.90
9542;DHT22;4809;48.224;8.572;2023-04-15T06:27:29;4.90;99.90
9542;DHT22;4809;48.224;8.572;2023-04-15T06:29:55;5.00;99.90
9542;DHT22;4809;48.224;8.572;2023-04-15T06:32:21;5.10;99.90
9542;DHT22;4809;48.224;8.572;2023-04-15T06:34:46;5.10;99.90
9542;DHT22;4809;48.224;8.572;2023-04-15T06:37:12;5.20;99.90
9542;DHT22;4809;48.224;8.572;2023-04-15T06:39:41;5.40;99.90
9542;DHT22;4809;48.224;8.572;2023-04-15T06:42:07;5.50;99.90
9542;DHT22;4809;48.224;8.572;2023-04-15T06:44:33;5.60;99.90
9542;DHT22;4809;48.224;8.572;2023-04-15T06:46:59;5.80;99.90
9542;DHT22;4809;48.224;8.572;2023-04-15T06:49:25;6.00;99.90
9542;DHT22;4809;48.224;8.572;2023-04-15T06:51:51;6.20;99.90
9542;DHT22;4809;48.224;8.572;2023-04-15T06:54:17;6.30;99.90
9542;DHT22;4809;48.224;8.572;2023-04-15T06:56:43;6.40;99.90
9542;DHT22;4809;48.224;8.572;2023-04-15T06:59:08;6.50;99.90
9542;DHT22;4809;48.224;8.572;2023-04-15T07:01:34;6.70;99.90
9542;DHT22;4809;48.224;8.572;2023-04-15T07:04:00;6.80;99.90
9542;DHT22;4809;48.224;8.572;2023-04-15T07:06:26;6.90;99.90
9542;DHT22;4809;48.224;8.572;2023-04-15T07:08:52;7.00;99.90
9542;DHT22;4809;48.224;8.572;2023-04-15T07:11:19;7.20;99.90
9542;DHT22;4809;48.224;8.572;2023-04-15T07:13:45;7.50;99.90
9542;DHT22;4809;48.224;8.572;2023-04-15T07:16:11;7.80;99.90
9542;DHT22;4809;48.224;8.572;2023-04-15T07:18:36;8.20;99.90
9542;DHT22;4809;48.224;8.572;2023-04-15T07:21:02;8.60;99.90
9542;DHT22;4809;48.224;8.572;2023-04-15T07:23:28;8.90;99.90
9542;DHT22;4809;48.224;8.572;2023-04-15T07:25:54;9.30;99.90
9542;DHT22;4809;48.224;8.572;2023-04-15T07:28:20;9.50;99.90
9542;DHT22;4809;48.224;8.572;2023-04-15T07:30:45;9.70;99.90
9542;DHT22;4809;48.224;8.572;2023-04-15T07:33:11;9.90;99.90
9542;DHT22;4809;48.224;8.572;2023-04-15T07:35:38;10.30;99.90
9542;DHT22;4809;48.224;8.572;2023-04-15T07:38:03;10.60;99.90
9542;DHT22;4809;48.224;8.572;2023-04-15T07:40:29;10.90;99.90
9542;DHT22;4809;48.224;8.572;2023-04-15T07:42:57;11.20;99.90
9542;DHT22;4809;48.224;8.572;2023-04-15T07:45:23;11.30;99.90
9542;DHT22;4809;48.224;8.572;2023-04-15T07:47:49;11.40;99.90
9542;DHT22;4809;48.224;8.572;2023-04-15T07:50:17;11.50;99.90
9542;DHT22;4809;48.224;8.572;2023-04-15T07:52:44;11.50;99.90
9542;DHT22;4809;48.224;8.572;2023-04-15T07:55:10;11.60;99.90
9542;DHT22;4809;48.224;8.572;2023-04-15T07:57:36;11.90;99.90
9542;DHT22;4809;48.224;8.572;2023-04-15T08:00:03;12.20;99.10
9542;DHT22;4809;48.224;8.572;2023-04-15T08:02:32;12.30;98.90
9542;DHT22;4809;48.224;8.572;2023-04-15T08:04:58;12.40;97.00
9542;DHT22;4809;48.224;8.572;2023-04-15T08:07:24;12.50;96.40
9542;DHT22;4809;48.224;8.572;2023-04-15T08:09:50;12.70;96.60
9542;DHT22;4809;48.224;8.572;2023-04-15T08:12:16;12.90;94.50
9542;DHT22;4809;48.224;8.572;2023-04-15T08:14:42;13.20;90.50
9542;DHT22;4809;48.224;8.572;2023-04-15T08:17:08;13.30;88.30
9542;DHT22;4809;48.224;8.572;2023-04-15T08:19:33;13.50;90.10
9542;DHT22;4809;48.224;8.572;2023-04-15T08:21:59;13.40;89.00
9542;DHT22;4809;48.224;8.572;2023-04-15T08:24:25;13.30;83.60
9542;DHT22;4809;48.224;8.572;2023-04-15T08:26:51;13.10;83.10
9542;DHT22;4809;48.224;8.572;2023-04-15T08:29:17;13.30;80.40
9542;DHT22;4809;48.224;8.572;2023-04-15T08:31:42;13.50;84.20
9542;DHT22;4809;48.224;8.572;2023-04-15T08:34:10;13.50;86.80
9542;DHT22;4809;48.224;8.572;2023-04-15T08:36:36;13.40;83.10
9542;DHT22;4809;48.224;8.572;2023-04-15T08:39:01;13.40;82.70
9542;DHT22;4809;48.224;8.572;2023-04-15T08:42:16;13.40;76.10
9542;DHT22;4809;48.224;8.572;2023-04-15T08:44:17;13.30;74.80
9542;DHT22;4809;48.224;8.572;2023-04-15T08:46:43;13.30;70.50
9542;DHT22;4809;48.224;8.572;2023-04-15T08:49:10;13.40;68.80
9542;DHT22;4809;48.224;8.572;2023-04-15T08:51:40;13.50;65.60
9542;DHT22;4809;48.224;8.572;2023-04-15T08:54:10;13.60;64.80
9542;DHT22;4809;48.224;8.572;2023-04-15T08:56:39;13.40;68.50
9542;DHT22;4809;48.224;8.572;2023-04-15T08:59:05;13.30;69.40
9542;DHT22;4809;48.224;8.572;2023-04-15T09:01:32;13.30;68.90
9542;DHT22;4809;48.224;8.572;2023-04-15T09:03:58;13.30;68.90
9542;DHT22;4809;48.224;8.572;2023-04-15T09:06:24;13.40;68.70
9542;DHT22;4809;48.224;8.572;2023-04-15T09:08:50;13.60;66.30
9542;DHT22;4809;48.224;8.572;2023-04-15T09:11:16;13.90;67.00
9542;DHT22;4809;48.224;8.572;2023-04-15T09:13:43;14.20;65.60
9542;DHT22;4809;48.224;8.572;2023-04-15T09:16:09;14.40;57.60
9542;DHT22;4809;48.224;8.572;2023-04-15T09:18:36;14.60;59.00
9542;DHT22;4809;48.224;8.572;2023-04-15T09:21:14;14.90;59.10
9542;DHT22;4809;48.224;8.572;2023-04-15T09:23:53;14.80;59.40
9542;DHT22;4809;48.224;8.572;2023-04-15T09:26:19;14.90;58.10
9542;DHT22;4809;48.224;8.572;2023-04-15T09:28:44;14.90;54.90
9542;DHT22;4809;48.224;8.572;2023-04-15T09:31:10;14.90;54.70
9542;DHT22;4809;48.224;8.572;2023-04-15T09:33:54;14.90;50.30
9542;DHT22;4809;48.224;8.572;2023-04-15T09:36:20;14.70;50.90
9542;DHT22;4809;48.224;8.572;2023-04-15T09:38:56;14.70;47.90
9542;DHT22;4809;48.224;8.572;2023-04-15T09:41:23;14.80;54.70
9542;DHT22;4809;48.224;8.572;2023-04-15T09:43:49;15.20;53.50
9542;DHT22;4809;48.224;8.572;2023-04-15T09:46:15;15.60;52.50
9542;DHT22;4809;48.224;8.572;2023-04-15T09:48:41;15.90;52.10
9542;DHT22;4809;48.224;8.572;2023-04-15T09:51:06;16.10;49.60
9542;DHT22;4809;48.224;8.572;2023-04-15T09:53:35;16.50;46.60
9542;DHT22;4809;48.224;8.572;2023-04-15T09:56:01;16.70;46.40
9542;DHT22;4809;48.224;8.572;2023-04-15T09:58:31;16.80;43.60
9542;DHT22;4809;48.224;8.572;2023-04-15T10:00:58;16.70;44.70
9542;DHT22;4809;48.224;8.572;2023-04-15T10:03:26;16.60;45.30
9542;DHT22;4809;48.224;8.572;2023-04-15T10:05:54;16.60;44.60
9542;DHT22;4809;48.224;8.572;2023-04-15T10:08:25;16.50;41.70
9542;DHT22;4809;48.224;8.572;2023-04-15T10:10:52;16.40;43.10
9542;DHT22;4809;48.224;8.572;2023-04-15T10:13:23;16.70;43.50
9542;DHT22;4809;48.224;8.572;2023-04-15T10:15:57;17.10;43.70
9542;DHT22;4809;48.224;8.572;2023-04-15T10:18:25;17.50;44.90
9542;DHT22;4809;48.224;8.572;2023-04-15T10:20:52;17.70;45.20
9542;DHT22;4809;48.224;8.572;2023-04-15T10:23:19;17.90;43.70
9542;DHT22;4809;48.224;8.572;2023-04-15T10:25:46;18.20;41.30
9542;DHT22;4809;48.224;8.572;2023-04-15T10:28:12;18.60;43.00
9542;DHT22;4809;48.224;8.572;2023-04-15T10:30:39;18.50;43.40
9542;DHT22;4809;48.224;8.572;2023-04-15T10:33:05;18.30;45.30
9542;DHT22;4809;48.224;8.572;2023-04-15T10:35:35;18.10;41.50
9542;DHT22;4809;48.224;8.572;2023-04-15T10:38:01;17.70;40.90
9542;DHT22;4809;48.224;8.572;2023-04-15T10:40:29;17.30;40.80
9542;DHT22;4809;48.224;8.572;2023-04-15T10:43:00;17.10;41.40
9542;DHT22;4809;48.224;8.572;2023-04-15T10:45:27;16.80;41.40
9542;DHT22;4809;48.224;8.572;2023-04-15T10:47:58;16.60;43.40
9542;DHT22;4809;48.224;8.572;2023-04-15T10:50:25;16.40;41.70
9542;DHT22;4809;48.224;8.572;2023-04-15T10:52:52;16.50;42.20
9542;DHT22;4809;48.224;8.572;2023-04-15T10:55:23;16.90;42.10
9542;DHT22;4809;48.224;8.572;2023-04-15T10:57:54;17.30;43.00
9542;DHT22;4809;48.224;8.572;2023-04-15T11:00:27;17.50;40.90
9542;DHT22;4809;48.224;8.572;2023-04-15T11:02:59;17.50;40.00
9542;DHT22;4809;48.224;8.572;2023-04-15T11:08:08;17.50;40.90
9542;DHT22;4809;48.224;8.572;2023-04-15T11:13:02;17.10;40.10
9542;DHT22;4809;48.224;8.572;2023-04-15T11:18:07;16.80;40.90
9542;DHT22;4809;48.224;8.572;2023-04-15T11:20:33;16.60;41.30
9542;DHT22;4809;48.224;8.572;2023-04-15T11:22:59;16.80;42.20
9542;DHT22;4809;48.224;8.572;2023-04-15T11:25:26;17.00;41.40
9542;DHT22;4809;48.224;8.572;2023-04-15T11:27:53;17.20;42.40
9542;DHT22;4809;48.224;8.572;2023-04-15T11:30:31;17.40;40.60
9542;DHT22;4809;48.224;8.572;2023-04-15T11:32:58;17.50;41.00
9542;DHT22;4809;48.224;8.572;2023-04-15T11:35:24;17.30;40.10
9542;DHT22;4809;48.224;8.572;2023-04-15T11:37:50;17.10;42.70
9542;DHT22;4809;48.224;8.572;2023-04-15T11:40:21;17.30;42.60
9542;DHT22;4809;48.224;8.572;2023-04-15T11:43:03;17.60;41.00
9542;DHT22;4809;48.224;8.572;2023-04-15T11:45:28;17.50;41.20
9542;DHT22;4809;48.224;8.572;2023-04-15T11:47:54;17.20;40.30
9542;DHT22;4809;48.224;8.572;2023-04-15T11:50:29;16.70;40.10
9542;DHT22;4809;48.224;8.572;2023-04-15T11:53:04;16.10;39.90
9542;DHT22;4809;48.224;8.572;2023-04-15T11:55:32;15.60;38.70
9542;DHT22;4809;48.224;8.572;2023-04-15T11:58:07;15.40;39.40
9542;DHT22;4809;48.224;8.572;2023-04-15T12:00:34;15.40;39.30
9542;DHT22;4809;48.224;8.572;2023-04-15T12:03:13;15.30;41.00
9542;DHT22;4809;48.224;8.572;2023-04-15T12:06:07;15.30;40.40
9542;DHT22;4809;48.224;8.572;2023-04-15T12:09:13;15.10;42.90
9542;DHT22;4809;48.224;8.572;2023-04-15T12:11:44;15.00;42.70
9542;DHT22;4809;48.224;8.572;2023-04-15T12:16:45;14.70;44.60
9542;DHT22;4809;48.224;8.572;2023-04-15T12:19:16;14.60;45.70
9542;DHT22;4809;48.224;8.572;2023-04-15T12:21:45;14.40;44.70
9542;DHT22;4809;48.224;8.572;2023-04-15T12:24:12;14.40;46.80
9542;DHT22;4809;48.224;8.572;2023-04-15T12:26:44;14.40;45.60
9542;DHT22;4809;48.224;8.572;2023-04-15T12:29:11;14.40;46.60
9542;DHT22;4809;48.224;8.572;2023-04-15T12:31:46;14.20;46.80
9542;DHT22;4809;48.224;8.572;2023-04-15T12:34:13;14.30;46.70
9542;DHT22;4809;48.224;8.572;2023-04-15T12:36:39;14.20;45.20
9542;DHT22;4809;48.224;8.572;2023-04-15T12:39:05;14.30;46.40
9542;DHT22;4809;48.224;8.572;2023-04-15T12:41:31;14.30;47.30
9542;DHT22;4809;48.224;8.572;2023-04-15T12:43:57;14.30;47.00
9542;DHT22;4809;48.224;8.572;2023-04-15T12:46:24;14.10;46.80
9542;DHT22;4809;48.224;8.572;2023-04-15T12:48:50;14.10;47.00
9542;DHT22;4809;48.224;8.572;2023-04-15T12:51:17;14.10;47.60
9542;DHT22;4809;48.224;8.572;2023-04-15T12:53:43;14.10;47.70
9542;DHT22;4809;48.224;8.572;2023-04-15T12:56:09;14.20;48.00
9542;DHT22;4809;48.224;8.572;2023-04-15T12:58:35;14.40;46.80
9542;DHT22;4809;48.224;8.572;2023-04-15T13:01:01;14.60;48.50
9542;DHT22;4809;48.224;8.572;2023-04-15T13:03:26;14.90;46.70
9542;DHT22;4809;48.224;8.572;2023-04-15T13:05:52;15.20;46.70
9542;DHT22;4809;48.224;8.572;2023-04-15T13:08:18;15.40;46.10
9542;DHT22;4809;48.224;8.572;2023-04-15T13:10:43;15.40;45.80
9542;DHT22;4809;48.224;8.572;2023-04-15T13:13:09;15.40;45.60
9542;DHT22;4809;48.224;8.572;2023-04-15T13:15:35;15.20;44.90
9542;DHT22;4809;48.224;8.572;2023-04-15T13:18:00;15.20;45.20
9542;DHT22;4809;48.224;8.572;2023-04-15T13:20:27;15.10;43.70
9542;DHT22;4809;48.224;8.572;2023-04-15T13:22:53;15.20;45.20
9542;DHT22;4809;48.224;8.572;2023-04-15T13:25:18;15.30;46.60
9542;DHT22;4809;48.224;8.572;2023-04-15T13:27:49;15.50;44.50
9542;DHT22;4809;48.224;8.572;2023-04-15T13:30:18;15.60;41.30
9542;DHT22;4809;48.224;8.572;2023-04-15T13:32:43;15.80;45.40
9542;DHT22;4809;48.224;8.572;2023-04-15T13:35:09;16.10;44.80
9542;DHT22;4809;48.224;8.572;2023-04-15T13:37:35;16.50;43.80
9542;DHT22;4809;48.224;8.572;2023-04-15T13:40:00;16.70;41.50
9542;DHT22;4809;48.224;8.572;2023-04-15T13:42:26;16.80;43.00
9542;DHT22;4809;48.224;8.572;2023-04-15T13:44:52;16.70;41.50
9542;DHT22;4809;48.224;8.572;2023-04-15T13:47:21;16.60;41.20
9542;DHT22;4809;48.224;8.572;2023-04-15T13:49:46;16.50;40.40
9542;DHT22;4809;48.224;8.572;2023-04-15T13:52:12;16.50;41.00
9542;DHT22;4809;48.224;8.572;2023-04-15T13:54:38;16.50;47.00
9542;DHT22;4809;48.224;8.572;2023-04-15T13:57:05;16.50;47.80
9542;DHT22;4809;48.224;8.572;2023-04-15T13:59:32;16.40;49.40
9542;DHT22;4809;48.224;8.572;2023-04-15T14:01:59;16.10;49.80
9542;DHT22;4809;48.224;8.572;2023-04-15T14:04:25;16.00;51.60
9542;DHT22;4809;48.224;8.572;2023-04-15T14:06:50;16.30;52.00
9542;DHT22;4809;48.224;8.572;2023-04-15T14:09:16;16.40;50.00
9542;DHT22;4809;48.224;8.572;2023-04-15T14:11:42;16.40;49.00
9542;DHT22;4809;48.224;8.572;2023-04-15T14:14:07;16.00;48.40
9542;DHT22;4809;48.224;8.572;2023-04-15T14:16:33;15.90;48.70
9542;DHT22;4809;48.224;8.572;2023-04-15T14:19:00;15.70;47.10
9542;DHT22;4809;48.224;8.572;2023-04-15T14:21:26;15.60;45.80
9542;DHT22;4809;48.224;8.572;2023-04-15T14:23:52;15.40;46.30
9542;DHT22;4809;48.224;8.572;2023-04-15T14:26:18;15.20;44.90
9542;DHT22;4809;48.224;8.572;2023-04-15T14:28:44;15.10;45.50
9542;DHT22;4809;48.224;8.572;2023-04-15T14:31:10;15.00;43.80
9542;DHT22;4809;48.224;8.572;2023-04-15T14:33:36;14.80;44.50
9542;DHT22;4809;48.224;8.572;2023-04-15T14:36:02;14.80;44.10
9542;DHT22;4809;48.224;8.572;2023-04-15T14:38:28;14.50;42.20
9542;DHT22;4809;48.224;8.572;2023-04-15T14:40:54;14.30;42.20
9542;DHT22;4809;48.224;8.572;2023-04-15T14:43:20;14.40;43.90
9542;DHT22;4809;48.224;8.572;2023-04-15T14:45:45;14.70;41.70
9542;DHT22;4809;48.224;8.572;2023-04-15T14:48:11;14.90;41.10
9542;DHT22;4809;48.224;8.572;2023-04-15T14:50:37;15.20;40.60
9542;DHT22;4809;48.224;8.572;2023-04-15T14:53:03;15.50;39.50
9542;DHT22;4809;48.224;8.572;2023-04-15T14:55:29;15.70;37.80
9542;DHT22;4809;48.224;8.572;2023-04-15T14:57:54;15.80;37.50
9542;DHT22;4809;48.224;8.572;2023-04-15T15:00:20;16.00;37.40
9542;DHT22;4809;48.224;8.572;2023-04-15T15:02:46;15.90;36.90
9542;DHT22;4809;48.224;8.572;2023-04-15T15:05:12;15.90;36.70
9542;DHT22;4809;48.224;8.572;2023-04-15T15:07:38;15.80;38.60
9542;DHT22;4809;48.224;8.572;2023-04-15T15:10:05;15.40;38.80
9542;DHT22;4809;48.224;8.572;2023-04-15T15:12:32;15.30;39.60
9542;DHT22;4809;48.224;8.572;2023-04-15T15:14:58;14.90;40.10
9542;DHT22;4809;48.224;8.572;2023-04-15T15:17:23;14.70;41.80
9542;DHT22;4809;48.224;8.572;2023-04-15T15:19:49;14.70;41.90
9542;DHT22;4809;48.224;8.572;2023-04-15T15:22:15;14.40;42.40
9542;DHT22;4809;48.224;8.572;2023-04-15T15:24:41;14.30;43.00
9542;DHT22;4809;48.224;8.572;2023-04-15T15:27:07;14.20;43.50
9542;DHT22;4809;48.224;8.572;2023-04-15T15:29:32;14.00;44.20
9542;DHT22;4809;48.224;8.572;2023-04-15T15:31:58;14.00;44.90
9542;DHT22;4809;48.224;8.572;2023-04-15T15:34:24;13.90;45.60
9542;DHT22;4809;48.224;8.572;2023-04-15T15:36:49;13.70;45.00
9542;DHT22;4809;48.224;8.572;2023-04-15T15:39:15;13.50;45.70
9542;DHT22;4809;48.224;8.572;2023-04-15T15:41:41;13.40;46.60
9542;DHT22;4809;48.224;8.572;2023-04-15T15:44:06;13.20;46.60
9542;DHT22;4809;48.224;8.572;2023-04-15T15:46:32;13.10;47.90
9542;DHT22;4809;48.224;8.572;2023-04-15T15:48:58;13.10;48.50
9542;DHT22;4809;48.224;8.572;2023-04-15T15:51:23;13.00;48.20
9542;DHT22;4809;48.224;8.572;2023-04-15T15:53:51;12.90;49.50
9542;DHT22;4809;48.224;8.572;2023-04-15T15:56:16;12.80;49.20
9542;DHT22;4809;48.224;8.572;2023-04-15T15:58:42;12.80;50.60
9542;DHT22;4809;48.224;8.572;2023-04-15T16:01:09;12.70;50.40
9542;DHT22;4809;48.224;8.572;2023-04-15T16:03:35;12.70;50.20
9542;DHT22;4809;48.224;8.572;2023-04-15T16:06:02;12.50;51.00
9542;DHT22;4809;48.224;8.572;2023-04-15T16:08:27;12.40;50.50
9542;DHT22;4809;48.224;8.572;2023-04-15T16:10:53;12.40;51.70
9542;DHT22;4809;48.224;8.572;2023-04-15T16:13:19;12.30;51.40
9542;DHT22;4809;48.224;8.572;2023-04-15T16:15:45;12.10;52.20
9542;DHT22;4809;48.224;8.572;2023-04-15T16:18:11;12.00;52.00